createdAt,value
2018-09-27T00:00:12.396Z,78.81
2018-09-27T00:02:46.803Z,78.34
2018-09-27T00:05:21.500Z,78.88
2018-09-27T00:07:55.888Z,79.18
2018-09-27T00:10:30.556Z,78.91
2018-09-27T00:13:05.564Z,78.78
2018-09-27T00:15:40.723Z,78.75
2018-09-27T00:18:15.275Z,78.73
2018-09-27T00:20:49.699Z,78.75
2018-09-27T00:23:24.018Z,78.88
2018-09-27T00:25:58.725Z,78.81
2018-09-27T00:28:33.439Z,78.89
2018-09-27T00:31:08.190Z,78.86
2018-09-27T00:33:42.996Z,79.27
2018-09-27T00:36:17.669Z,79.27
2018-09-27T00:38:52.155Z,79.37
2018-09-27T00:41:26.553Z,79.47
2018-09-27T00:44:01.133Z,79.15
2018-09-27T00:46:35.996Z,78.89
2018-09-27T00:49:10.324Z,78.71
2018-09-27T00:51:44.732Z,78.80
2018-09-27T00:54:19.680Z,79.12
2018-09-27T00:56:54.255Z,79.36
2018-09-27T00:59:29.023Z,79.60
2018-09-27T01:02:03.707Z,80.02
2018-09-27T01:04:38.359Z,79.81
2018-09-27T01:07:13.232Z,79.30
2018-09-27T01:09:48.707Z,79.20
2018-09-27T01:12:23.262Z,79.19
2018-09-27T01:14:57.831Z,79.67
2018-09-27T01:17:33.101Z,79.77
2018-09-27T01:20:07.976Z,80.14
2018-09-27T01:22:43.124Z,80.22
2018-09-27T01:25:17.548Z,79.72
2018-09-27T01:27:55.246Z,79.34
2018-09-27T01:30:30.118Z,79.48
2018-09-27T01:33:05.096Z,79.64
2018-09-27T01:35:39.475Z,79.76
2018-09-27T01:38:13.948Z,79.64
2018-09-27T01:40:48.551Z,79.68
2018-09-27T01:43:23.183Z,79.17
2018-09-27T01:45:57.492Z,79.52
2018-09-27T01:48:31.835Z,79.54
2018-09-27T01:51:06.683Z,79.52
2018-09-27T01:53:41.261Z,79.63
2018-09-27T01:56:16.348Z,79.90
2018-09-27T01:58:50.685Z,80.26
2018-09-27T02:01:25.748Z,81.31
2018-09-27T02:04:00.483Z,81.06
2018-09-27T02:06:35.191Z,81.24
2018-09-27T02:09:10.028Z,80.81
2018-09-27T02:11:45.154Z,80.49
2018-09-27T02:14:19.512Z,80.32
2018-09-27T02:16:54.039Z,80.31
2018-09-27T02:19:28.856Z,80.45
2018-09-27T02:22:04.331Z,80.23
2018-09-27T02:24:38.674Z,80.42
2018-09-27T02:27:13.481Z,80.84
2018-09-27T02:29:47.844Z,80.61
2018-09-27T02:32:22.409Z,81.36
2018-09-27T02:34:57.264Z,81.85
2018-09-27T02:37:31.648Z,81.35
2018-09-27T02:40:06.540Z,80.89
2018-09-27T02:42:41.566Z,80.74
2018-09-27T02:45:16.132Z,80.58
2018-09-27T02:47:50.968Z,80.50
2018-09-27T02:50:25.867Z,80.67
2018-09-27T02:53:00.676Z,80.41
2018-09-27T02:55:35.419Z,80.51
2018-09-27T02:58:10.140Z,80.60
2018-09-27T03:00:44.936Z,80.86
2018-09-27T03:03:19.468Z,81.78
2018-09-27T03:05:54.036Z,82.46
2018-09-27T03:08:28.437Z,82.57
2018-09-27T03:11:03.115Z,81.64
2018-09-27T03:13:38.049Z,80.75
2018-09-27T03:16:13.014Z,81.14
2018-09-27T03:18:47.867Z,80.75
2018-09-27T03:21:22.436Z,81.34
2018-09-27T03:23:57.287Z,81.16
2018-09-27T03:26:31.979Z,81.74
2018-09-27T03:29:07.267Z,82.34
2018-09-27T03:31:41.901Z,82.80
2018-09-27T03:34:16.385Z,82.46
2018-09-27T03:36:50.963Z,82.46
2018-09-27T03:39:25.523Z,83.07
2018-09-27T03:42:00.188Z,82.75
2018-09-27T03:44:34.780Z,82.52
2018-09-27T03:47:09.492Z,82.08
2018-09-27T03:49:44.363Z,82.16
2018-09-27T03:52:19.002Z,82.24
2018-09-27T03:54:53.738Z,81.79
2018-09-27T03:57:28.116Z,81.43
2018-09-27T04:00:02.626Z,81.93
2018-09-27T04:02:37.311Z,82.48
2018-09-27T04:05:12.084Z,82.55
2018-09-27T04:07:46.421Z,82.01
2018-09-27T04:10:20.940Z,81.83
2018-09-27T04:12:55.388Z,81.35
2018-09-27T04:15:33.584Z,81.57
2018-09-27T04:18:08.048Z,81.39
2018-09-27T04:20:49.409Z,81.37
2018-09-27T04:23:25.147Z,81.31
2018-09-27T04:25:59.873Z,81.59
2018-09-27T04:28:34.768Z,81.18
2018-09-27T04:31:10.138Z,81.15
2018-09-27T04:33:44.852Z,81.14
2018-09-27T04:36:19.601Z,81.69
2018-09-27T04:38:54.257Z,81.44
2018-09-27T04:41:32.723Z,81.35
2018-09-27T04:44:07.704Z,81.20
2018-09-27T04:46:42.291Z,81.06
2018-09-27T04:49:18.272Z,81.14
2018-09-27T04:51:53.482Z,80.81
2018-09-27T04:54:28.491Z,81.02
2018-09-27T04:57:03.639Z,81.31
2018-09-27T04:59:38.068Z,81.37
2018-09-27T05:02:12.751Z,81.65
2018-09-27T05:04:47.522Z,80.98
2018-09-27T05:07:21.956Z,81.16
2018-09-27T05:09:57.329Z,81.11
2018-09-27T05:12:32.252Z,81.18
2018-09-27T05:15:07.803Z,81.13
2018-09-27T05:17:42.492Z,80.92
2018-09-27T05:20:17.239Z,81.41
2018-09-27T05:22:52.281Z,81.63
2018-09-27T05:25:27.167Z,81.92
2018-09-27T05:28:01.433Z,82.32
2018-09-27T05:30:36.286Z,82.18
2018-09-27T05:33:10.723Z,81.57
2018-09-27T05:35:45.408Z,81.88
2018-09-27T05:38:19.816Z,82.24
2018-09-27T05:40:54.443Z,82.64
2018-09-27T05:43:29.052Z,82.43
2018-09-27T05:46:04.352Z,83.09
2018-09-27T05:48:39.227Z,83.41
2018-09-27T05:51:14.128Z,83.50
2018-09-27T05:53:49.597Z,83.62
2018-09-27T05:56:24.707Z,83.50
2018-09-27T05:58:59.463Z,83.49
2018-09-27T06:01:34.149Z,83.08
2018-09-27T06:04:08.640Z,83.37
2018-09-27T06:06:43.327Z,83.14
2018-09-27T06:09:17.649Z,83.18
2018-09-27T06:11:52.392Z,83.26
2018-09-27T06:14:26.847Z,83.14
2018-09-27T06:17:01.728Z,83.13
2018-09-27T06:19:36.717Z,83.17
2018-09-27T06:22:11.695Z,82.32
2018-09-27T06:24:46.200Z,82.34
2018-09-27T06:27:20.938Z,82.01
2018-09-27T06:29:55.421Z,81.90
2018-09-27T06:32:29.918Z,81.76
2018-09-27T06:35:04.663Z,82.25
2018-09-27T06:37:39.447Z,82.49
2018-09-27T06:40:14.008Z,81.90
2018-09-27T06:42:48.833Z,81.11
2018-09-27T06:45:23.548Z,80.82
2018-09-27T06:47:58.176Z,80.46
2018-09-27T06:50:32.461Z,79.38
2018-09-27T06:53:07.223Z,78.62
2018-09-27T06:55:41.600Z,78.75
2018-09-27T06:58:16.532Z,77.29
2018-09-27T07:00:51.514Z,77.31
2018-09-27T07:03:26.329Z,77.12
2018-09-27T07:06:01.176Z,78.08
2018-09-27T07:08:35.956Z,76.20
2018-09-27T07:11:10.652Z,76.10
2018-09-27T07:13:45.336Z,76.75
2018-09-27T07:16:20.152Z,75.98
2018-09-27T07:18:54.634Z,75.62
2018-09-27T07:21:29.276Z,75.09
2018-09-27T07:24:04.495Z,76.09
2018-09-27T07:26:39.645Z,74.90
2018-09-27T07:29:14.384Z,77.50
2018-09-27T07:31:49.317Z,76.44
2018-09-27T07:34:23.814Z,76.81
2018-09-27T07:36:58.783Z,75.72
2018-09-27T07:39:33.924Z,76.05
2018-09-27T07:42:09.247Z,75.18
2018-09-27T07:44:43.614Z,73.99
2018-09-27T07:47:18.588Z,74.20
2018-09-27T07:49:53.560Z,75.80
2018-09-27T07:52:27.974Z,74.29
2018-09-27T07:55:02.789Z,72.25
2018-09-27T07:57:37.820Z,70.86
2018-09-27T08:00:12.328Z,69.91
2018-09-27T08:02:46.689Z,70.00
2018-09-27T08:05:21.830Z,67.48
2018-09-27T08:07:56.343Z,69.12
2018-09-27T08:10:30.980Z,66.15
2018-09-27T08:13:06.071Z,65.50
2018-09-27T08:15:41.069Z,65.96
2018-09-27T08:18:15.503Z,67.92
2018-09-27T08:20:50.203Z,64.06
2018-09-27T08:23:25.071Z,64.20
2018-09-27T08:26:00.348Z,64.22
2018-09-27T08:28:35.580Z,58.44
2018-09-27T08:31:10.173Z,58.88
2018-09-27T08:33:44.961Z,56.22
2018-09-27T08:36:19.427Z,58.74
2018-09-27T08:38:53.780Z,55.05
2018-09-27T08:41:28.437Z,52.28
2018-09-27T08:44:03.512Z,56.14
2018-09-27T08:46:38.521Z,50.63
2018-09-27T08:49:13.341Z,53.65
2018-09-27T08:51:47.798Z,53.71
2018-09-27T08:54:22.213Z,50.68
2018-09-27T08:56:56.531Z,53.65
2018-09-27T08:59:31.292Z,52.35
2018-09-27T09:02:05.948Z,52.40
2018-09-27T09:04:40.331Z,50.62
2018-09-27T09:07:14.760Z,48.21
2018-09-27T09:09:49.298Z,46.41
2018-09-27T09:12:23.709Z,46.62
2018-09-27T09:14:57.995Z,51.76
2018-09-27T09:17:32.422Z,45.66
2018-09-27T09:20:07.563Z,43.93
2018-09-27T09:22:41.996Z,44.59
2018-09-27T09:25:17.015Z,51.59
2018-09-27T09:27:51.458Z,49.75
2018-09-27T09:30:26.470Z,49.71
2018-09-27T09:33:01.299Z,49.89
2018-09-27T09:35:35.936Z,46.53
2018-09-27T09:38:10.572Z,47.90
2018-09-27T09:40:45.140Z,42.19
2018-09-27T09:43:19.675Z,48.83
2018-09-27T09:45:54.965Z,49.08
2018-09-27T09:48:29.760Z,51.42
2018-09-27T09:51:04.620Z,51.36
2018-09-27T09:53:39.439Z,42.77
2018-09-27T09:56:14.192Z,47.59
2018-09-27T09:58:48.644Z,47.77
2018-09-27T10:01:23.160Z,45.10
2018-09-27T10:03:57.675Z,46.37
2018-09-27T10:06:32.155Z,47.27
2018-09-27T10:09:08.563Z,46.05
2018-09-27T10:11:46.967Z,49.86
2018-09-27T10:14:21.604Z,46.52
2018-09-27T10:16:56.460Z,42.28
2018-09-27T10:19:30.775Z,43.33
2018-09-27T10:22:05.192Z,43.18
2018-09-27T10:24:39.768Z,41.48
2018-09-27T10:27:14.512Z,51.86
2018-09-27T10:29:49.066Z,43.71
2018-09-27T10:32:23.460Z,45.69
2018-09-27T10:34:57.780Z,42.01
2018-09-27T10:37:32.082Z,42.81
2018-09-27T10:40:06.777Z,40.01
2018-09-27T10:42:41.691Z,39.44
2018-09-27T10:45:16.029Z,44.80
2018-09-27T10:47:50.665Z,40.02
2018-09-27T10:50:25.123Z,39.10
2018-09-27T10:52:59.553Z,40.34
2018-09-27T10:55:34.441Z,42.71
2018-09-27T10:58:09.195Z,43.55
2018-09-27T11:00:44.143Z,40.56
2018-09-27T11:03:19.052Z,42.07
2018-09-27T11:05:54.248Z,44.86
2018-09-27T11:08:28.791Z,38.12
2018-09-27T11:11:03.689Z,43.47
2018-09-27T11:13:38.948Z,38.70
2018-09-27T11:16:13.227Z,38.66
2018-09-27T11:18:47.752Z,39.16
2018-09-27T11:21:22.204Z,35.65
2018-09-27T11:23:56.680Z,41.46
2018-09-27T11:26:31.159Z,41.20
2018-09-27T11:29:11.197Z,37.95
2018-09-27T11:31:51.815Z,39.17
2018-09-27T11:34:27.119Z,34.66
2018-09-27T11:37:01.431Z,36.36
2018-09-27T11:39:36.036Z,36.20
2018-09-27T11:42:10.643Z,41.91
2018-09-27T11:44:45.852Z,37.54
2018-09-27T11:47:20.224Z,39.13
2018-09-27T11:49:55.226Z,34.35
2018-09-27T11:52:29.885Z,38.21
2018-09-27T11:55:05.174Z,37.33
2018-09-27T11:57:40.209Z,39.27
2018-09-27T12:00:15.632Z,41.06
2018-09-27T12:02:49.889Z,39.01
2018-09-27T12:05:24.796Z,36.12
2018-09-27T12:07:59.460Z,34.86
2018-09-27T12:10:33.924Z,37.51
2018-09-27T12:13:08.608Z,38.80
2018-09-27T12:15:43.710Z,41.37
2018-09-27T12:18:18.368Z,37.52
2018-09-27T12:20:53.080Z,38.59
2018-09-27T12:23:27.595Z,37.67
2018-09-27T12:26:02.388Z,34.89
2018-09-27T12:28:37.086Z,35.74
2018-09-27T12:31:11.663Z,33.70
2018-09-27T12:33:46.540Z,33.68
2018-09-27T12:36:20.813Z,35.64
2018-09-27T12:38:55.291Z,37.40
2018-09-27T12:41:30.086Z,38.17
2018-09-27T12:44:04.712Z,38.26
2018-09-27T12:46:39.088Z,38.64
2018-09-27T12:49:14.035Z,34.34
2018-09-27T12:51:49.196Z,34.41
2018-09-27T12:54:25.261Z,32.72
2018-09-27T12:56:59.566Z,34.68
2018-09-27T12:59:34.548Z,36.17
2018-09-27T13:02:09.822Z,36.61
2018-09-27T13:04:44.731Z,34.98
2018-09-27T13:07:19.612Z,35.37
2018-09-27T13:09:55.125Z,33.31
2018-09-27T13:12:30.101Z,37.92
2018-09-27T13:15:05.221Z,39.31
2018-09-27T13:17:40.013Z,38.28
2018-09-27T13:20:16.055Z,33.74
2018-09-27T13:22:51.202Z,35.24
2018-09-27T13:25:25.966Z,34.97
2018-09-27T13:28:00.873Z,36.30
2018-09-27T13:30:35.667Z,38.75
2018-09-27T13:33:10.337Z,38.92
2018-09-27T13:35:46.036Z,39.64
2018-09-27T13:38:20.356Z,38.81
2018-09-27T13:40:54.692Z,37.64
2018-09-27T13:43:29.182Z,35.56
2018-09-27T13:46:03.943Z,37.94
2018-09-27T13:48:38.646Z,40.21
2018-09-27T13:51:13.674Z,41.30
2018-09-27T13:53:48.209Z,38.02
2018-09-27T13:56:22.876Z,40.10
2018-09-27T13:58:57.561Z,40.84
2018-09-27T14:01:32.035Z,36.02
2018-09-27T14:04:06.952Z,37.61
2018-09-27T14:06:41.337Z,39.76
2018-09-27T14:09:15.932Z,39.78
2018-09-27T14:11:51.227Z,40.15
2018-09-27T14:14:25.632Z,39.14
2018-09-27T14:17:00.510Z,39.62
2018-09-27T14:19:35.100Z,38.44
2018-09-27T14:22:09.545Z,38.73
2018-09-27T14:24:44.043Z,38.21
2018-09-27T14:27:19.304Z,37.66
2018-09-27T14:29:53.867Z,37.90
2018-09-27T14:32:28.463Z,38.76
2018-09-27T14:35:03.852Z,37.79
2018-09-27T14:37:38.507Z,40.08
2018-09-27T14:40:13.351Z,39.11
2018-09-27T14:42:52.533Z,39.51
2018-09-27T14:45:27.251Z,38.82
2018-09-27T14:48:01.987Z,37.98
2018-09-27T14:50:36.547Z,38.33
2018-09-27T14:53:10.974Z,37.80
2018-09-27T14:55:45.628Z,39.78
2018-09-27T14:58:20.509Z,38.88
2018-09-27T15:00:54.814Z,37.95
2018-09-27T15:03:30.190Z,39.65
2018-09-27T15:06:05.156Z,40.27
2018-09-27T15:08:39.774Z,42.42
2018-09-27T15:11:14.212Z,42.49
2018-09-27T15:13:51.159Z,42.16
2018-09-27T15:16:25.957Z,41.69
2018-09-27T15:19:01.647Z,41.52
2018-09-27T15:21:36.664Z,42.22
2018-09-27T15:24:11.760Z,42.23
2018-09-27T15:26:46.411Z,42.64
2018-09-27T15:29:21.137Z,41.87
2018-09-27T15:31:55.973Z,43.82
2018-09-27T15:34:31.591Z,44.25
2018-09-27T15:37:06.411Z,43.28
2018-09-27T15:39:40.894Z,42.61
2018-09-27T15:42:16.204Z,43.76
2018-09-27T15:44:50.711Z,43.66
2018-09-27T15:47:25.348Z,43.90
2018-09-27T15:50:00.077Z,46.10
2018-09-27T15:52:34.828Z,44.46
2018-09-27T15:55:09.488Z,45.74
2018-09-27T15:57:44.089Z,46.17
2018-09-27T16:00:18.627Z,44.52
2018-09-27T16:02:53.381Z,45.01
2018-09-27T16:05:27.977Z,46.40
2018-09-27T16:08:02.646Z,47.40
2018-09-27T16:10:37.659Z,47.87
2018-09-27T16:13:12.472Z,47.58
2018-09-27T16:15:47.384Z,47.67
2018-09-27T16:18:22.648Z,46.59
2018-09-27T16:20:57.292Z,48.30
2018-09-27T16:23:35.425Z,49.81
2018-09-27T16:26:10.084Z,49.76
2018-09-27T16:28:44.576Z,52.02
2018-09-27T16:31:19.783Z,52.05
2018-09-27T16:33:57.001Z,53.50
2018-09-27T16:36:32.504Z,54.82
2018-09-27T16:39:09.250Z,54.42
2018-09-27T16:41:46.859Z,57.00
2018-09-27T16:44:22.004Z,57.50
2018-09-27T16:46:56.886Z,58.03
2018-09-27T16:49:31.351Z,60.35
2018-09-27T16:52:07.814Z,59.59
2018-09-27T16:54:42.542Z,60.46
2018-09-27T16:57:20.634Z,61.56
2018-09-27T16:59:55.192Z,61.47
2018-09-27T17:02:30.166Z,62.05
2018-09-27T17:05:05.216Z,60.83
2018-09-27T17:07:39.676Z,62.08
2018-09-27T17:10:14.060Z,62.72
2018-09-27T17:12:48.702Z,63.43
2018-09-27T17:15:23.619Z,64.34
2018-09-27T17:17:57.944Z,65.39
2018-09-27T17:20:32.393Z,65.83
2018-09-27T17:23:07.309Z,66.44
2018-09-27T17:25:45.928Z,66.24
2018-09-27T17:28:20.466Z,65.77
2018-09-27T17:30:55.040Z,65.48
2018-09-27T17:33:29.749Z,66.75
2018-09-27T17:36:09.228Z,66.11
2018-09-27T17:38:43.898Z,66.62
2018-09-27T17:41:18.608Z,67.68
2018-09-27T17:43:58.849Z,67.17
2018-09-27T17:46:34.154Z,66.86
2018-09-27T17:49:10.530Z,66.93
2018-09-27T17:51:46.689Z,67.67
2018-09-27T17:54:21.354Z,68.14
2018-09-27T17:56:55.881Z,67.82
2018-09-27T17:59:31.448Z,67.98
2018-09-27T18:02:06.477Z,68.89
2018-09-27T18:04:41.031Z,68.61
2018-09-27T18:07:15.892Z,68.39
2018-09-27T18:09:50.589Z,68.97
2018-09-27T18:12:26.172Z,70.13
2018-09-27T18:15:02.392Z,69.83
2018-09-27T18:17:41.117Z,70.67
2018-09-27T18:20:16.096Z,70.44
2018-09-27T18:22:51.089Z,69.99
2018-09-27T18:25:25.946Z,70.84
2018-09-27T18:28:00.668Z,71.15
2018-09-27T18:30:35.068Z,71.22
2018-09-27T18:33:09.958Z,70.59
2018-09-27T18:35:48.358Z,70.89
2018-09-27T18:38:22.694Z,71.00
2018-09-27T18:40:57.782Z,71.69
2018-09-27T18:43:32.524Z,71.57
2018-09-27T18:46:08.213Z,72.01
2018-09-27T18:48:42.776Z,72.19
2018-09-27T18:51:17.967Z,72.62
2018-09-27T18:53:52.624Z,72.39
2018-09-27T18:56:27.324Z,72.11
2018-09-27T18:59:01.836Z,72.52
2018-09-27T19:01:37.282Z,72.57
2018-09-27T19:04:11.841Z,72.47
2018-09-27T19:06:46.672Z,73.47
2018-09-27T19:09:21.385Z,73.03
2018-09-27T19:11:56.306Z,73.68
2018-09-27T19:14:30.631Z,73.97
2018-09-27T19:17:05.279Z,73.12
2018-09-27T19:19:39.710Z,74.05
2018-09-27T19:22:14.193Z,74.19
2018-09-27T19:24:49.213Z,74.02
2018-09-27T19:27:23.932Z,74.38
2018-09-27T19:29:58.516Z,74.23
2018-09-27T19:32:33.213Z,75.18
2018-09-27T19:35:08.471Z,74.67
2018-09-27T19:37:43.829Z,74.92
2018-09-27T19:40:18.683Z,75.40
2018-09-27T19:42:53.448Z,74.55
2018-09-27T19:45:28.792Z,74.57
2018-09-27T19:48:03.145Z,76.00
2018-09-27T19:50:37.833Z,76.11
2018-09-27T19:53:12.550Z,76.69
2018-09-27T19:55:47.132Z,76.10
2018-09-27T19:58:21.812Z,76.74
2018-09-27T20:00:56.415Z,78.28
2018-09-27T20:03:31.124Z,77.19
2018-09-27T20:06:07.383Z,77.96
2018-09-27T20:08:42.048Z,77.41
2018-09-27T20:11:16.473Z,78.34
2018-09-27T20:13:50.889Z,80.10
2018-09-27T20:16:25.384Z,80.44
2018-09-27T20:19:00.684Z,80.02
2018-09-27T20:21:35.923Z,79.29
2018-09-27T20:24:10.605Z,79.01
2018-09-27T20:26:45.119Z,81.03
2018-09-27T20:29:19.812Z,80.74
2018-09-27T20:31:54.204Z,80.58
2018-09-27T20:34:28.610Z,79.84
2018-09-27T20:37:03.300Z,79.69
2018-09-27T20:39:37.720Z,79.33
2018-09-27T20:42:12.236Z,79.86
2018-09-27T20:44:46.552Z,80.50
2018-09-27T20:47:20.916Z,78.32
2018-09-27T20:49:55.317Z,78.17
2018-09-27T20:52:30.197Z,77.73
2018-09-27T20:55:04.552Z,77.33
2018-09-27T20:57:39.027Z,77.34
2018-09-27T21:00:14.056Z,76.91
2018-09-27T21:02:48.503Z,77.79
2018-09-27T21:05:22.968Z,77.96
2018-09-27T21:07:57.291Z,77.79
2018-09-27T21:10:31.817Z,77.85
2018-09-27T21:13:06.888Z,77.54
2018-09-27T21:15:41.224Z,77.44
2018-09-27T21:18:15.808Z,77.83
2018-09-27T21:20:50.224Z,77.61
2018-09-27T21:23:26.409Z,77.77
2018-09-27T21:26:00.988Z,77.53
2018-09-27T21:28:35.703Z,78.27
2018-09-27T21:31:10.453Z,77.55
2018-09-27T21:33:45.859Z,77.38
2018-09-27T21:36:20.336Z,77.67
2018-09-27T21:39:00.957Z,79.05
2018-09-27T21:41:35.440Z,80.95
2018-09-27T21:44:09.927Z,81.67
2018-09-27T21:46:44.555Z,81.92
2018-09-27T21:49:19.007Z,82.72
2018-09-27T21:51:53.529Z,82.45
2018-09-27T21:54:28.463Z,83.02
2018-09-27T21:57:03.217Z,82.75
2018-09-27T21:59:38.059Z,81.11
2018-09-27T22:02:13.237Z,80.28
2018-09-27T22:04:47.617Z,81.05
2018-09-27T22:07:24.867Z,82.25
2018-09-27T22:09:59.640Z,82.39
2018-09-27T22:12:34.481Z,81.79
2018-09-27T22:15:08.924Z,81.34
2018-09-27T22:17:43.315Z,81.17
2018-09-27T22:20:17.674Z,80.90
2018-09-27T22:22:52.115Z,80.85
2018-09-27T22:25:26.679Z,80.57
2018-09-27T22:28:01.598Z,80.77
2018-09-27T22:30:36.341Z,81.37
2018-09-27T22:33:10.740Z,80.89
2018-09-27T22:35:45.255Z,81.40
2018-09-27T22:38:19.775Z,80.69
2018-09-27T22:40:54.186Z,79.92
2018-09-27T22:43:28.821Z,80.04
2018-09-27T22:46:03.092Z,80.10
2018-09-27T22:48:37.588Z,81.19
2018-09-27T22:51:12.062Z,81.18
2018-09-27T22:53:46.359Z,80.04
2018-09-27T22:56:21.015Z,80.10
2018-09-27T22:58:55.499Z,79.49
2018-09-27T23:01:30.028Z,79.35
2018-09-27T23:04:04.824Z,79.07
2018-09-27T23:06:39.666Z,80.85
2018-09-27T23:09:14.480Z,80.98
2018-09-27T23:11:49.175Z,81.15
2018-09-27T23:14:23.680Z,81.07
2018-09-27T23:16:58.443Z,80.33
2018-09-27T23:19:33.459Z,80.42
2018-09-27T23:22:08.320Z,79.59
2018-09-27T23:24:43.048Z,79.18
2018-09-27T23:27:17.539Z,79.38
2018-09-27T23:29:52.045Z,79.53
2018-09-27T23:32:27.668Z,79.00
2018-09-27T23:35:02.336Z,80.62
2018-09-27T23:37:36.760Z,79.35
2018-09-27T23:40:11.319Z,80.28
2018-09-27T23:42:45.876Z,81.72
2018-09-27T23:45:20.676Z,82.33
2018-09-27T23:47:54.980Z,82.04
2018-09-27T23:50:29.983Z,80.83
2018-09-27T23:53:04.800Z,79.93
2018-09-27T23:55:39.325Z,79.86
2018-09-27T23:58:13.677Z,79.63
